createdAt,value
2017-04-15T00:00:11.248Z,7.83
2017-04-15T00:01:22.277Z,7.86
2017-04-15T00:02:33.312Z,7.85
2017-04-15T00:03:44.346Z,7.85
2017-04-15T00:04:55.380Z,7.91
2017-04-15T00:06:06.664Z,7.8
2017-04-15T00:07:17.695Z,7.91
2017-04-15T00:08:28.724Z,7.86
2017-04-15T00:09:39.753Z,7.85
2017-04-15T00:10:50.909Z,7.82
2017-04-15T00:12:02.010Z,7.83
2017-04-15T00:13:13.258Z,7.86
2017-04-15T00:14:24.295Z,7.92
2017-04-15T00:15:35.582Z,7.95
2017-04-15T00:16:46.814Z,7.91
2017-04-15T00:17:57.841Z,7.92
2017-04-15T00:19:08.931Z,7.86
2017-04-15T00:20:20.159Z,7.98
2017-04-15T00:21:31.188Z,7.85
2017-04-15T00:22:42.219Z,7.88
2017-04-15T00:23:53.452Z,7.98
2017-04-15T00:25:04.480Z,7.92
2017-04-15T00:26:15.751Z,7.98
2017-04-15T00:27:26.987Z,7.95
2017-04-15T00:28:38.019Z,7.91
2017-04-15T00:29:49.046Z,7.95
2017-04-15T00:31:00.077Z,7.93
2017-04-15T00:32:11.113Z,7.96
2017-04-15T00:33:22.148Z,7.92
2017-04-15T00:34:33.180Z,8.01
2017-04-15T00:35:44.216Z,8.07
2017-04-15T00:36:55.283Z,8.01
2017-04-15T00:38:06.301Z,8.06
2017-04-15T00:39:17.327Z,8.17
2017-04-15T00:40:28.552Z,8.17
2017-04-15T00:41:39.978Z,8.19
2017-04-15T00:42:51.017Z,8.14
2017-04-15T00:44:02.041Z,8.1
2017-04-15T00:45:13.057Z,8.1
2017-04-15T00:46:24.092Z,8.13
2017-04-15T00:47:35.127Z,8.21
2017-04-15T00:48:46.211Z,8.19
2017-04-15T00:49:57.252Z,8.13
2017-04-15T00:51:08.495Z,8.24
2017-04-15T00:53:30.771Z,8.16
2017-04-15T00:54:41.799Z,8.22
2017-04-15T00:55:52.815Z,8.09
2017-04-15T00:57:03.849Z,8.26
2017-04-15T00:58:15.138Z,8.25
2017-04-15T00:59:26.563Z,8.26
2017-04-15T01:00:37.617Z,8.19
2017-04-15T01:01:48.647Z,8.25
2017-04-15T01:02:59.689Z,8.24
2017-04-15T01:04:10.722Z,8.21
2017-04-15T01:05:21.743Z,8.26
2017-04-15T01:06:32.762Z,8.19
2017-04-15T01:07:43.795Z,8.17
2017-04-15T01:08:55.286Z,8.22
2017-04-15T01:10:06.313Z,8.19
2017-04-15T01:11:17.339Z,8.26
2017-04-15T01:12:28.374Z,8.28
2017-04-15T01:13:39.610Z,8.24
2017-04-15T01:14:50.642Z,8.29
2017-04-15T01:16:01.673Z,8.35
2017-04-15T01:17:12.692Z,8.26
2017-04-15T01:18:23.721Z,8.25
2017-04-15T01:19:35.007Z,8.24
2017-04-15T01:20:46.035Z,8.25
2017-04-15T01:21:57.051Z,8.34
2017-04-15T01:23:08.280Z,8.31
2017-04-15T01:24:19.518Z,8.34
2017-04-15T01:25:30.548Z,8.28
2017-04-15T01:26:41.564Z,8.29
2017-04-15T01:27:52.601Z,8.39
2017-04-15T01:29:03.831Z,8.32
2017-04-15T01:30:14.860Z,8.36
2017-04-15T01:31:25.915Z,8.31
2017-04-15T01:32:36.937Z,8.5
2017-04-15T01:33:47.984Z,8.42
2017-04-15T01:34:59.160Z,8.44
2017-04-15T01:36:10.363Z,8.44
2017-04-15T01:37:21.530Z,8.44
2017-04-15T01:38:32.555Z,8.49
2017-04-15T01:39:43.589Z,8.46
2017-04-15T01:40:54.655Z,8.6
2017-04-15T01:42:05.686Z,8.65
2017-04-15T01:43:16.721Z,8.6
2017-04-15T01:44:27.764Z,8.65
2017-04-15T01:45:38.786Z,8.71
2017-04-15T01:46:49.810Z,8.69
2017-04-15T01:48:01.041Z,8.76
2017-04-15T01:49:12.065Z,8.79
2017-04-15T01:50:23.304Z,8.79
2017-04-15T01:51:34.588Z,8.79
2017-04-15T01:52:45.622Z,8.87
2017-04-15T01:53:56.656Z,8.9
2017-04-15T01:55:08.000Z,8.89
2017-04-15T01:56:19.164Z,9
2017-04-15T01:57:30.404Z,8.97
2017-04-15T01:58:41.440Z,8.94
2017-04-15T01:59:52.458Z,9.01
2017-04-15T02:01:03.679Z,8.97
2017-04-15T02:02:14.947Z,8.98
2017-04-15T02:03:25.984Z,8.85
2017-04-15T02:04:37.006Z,8.94
2017-04-15T02:05:48.036Z,8.94
2017-04-15T02:06:59.055Z,8.92
2017-04-15T02:08:10.088Z,8.89
2017-04-15T02:09:21.125Z,8.95
2017-04-15T02:10:32.141Z,8.94
2017-04-15T02:11:43.171Z,8.94
2017-04-15T02:12:54.201Z,8.92
2017-04-15T02:14:05.264Z,8.97
2017-04-15T02:15:16.377Z,8.94
2017-04-15T02:16:28.013Z,8.87
2017-04-15T02:17:39.047Z,8.94
2017-04-15T02:18:50.089Z,8.82
2017-04-15T02:20:01.121Z,8.92
2017-04-15T02:21:12.353Z,8.86
2017-04-15T02:22:23.370Z,8.82
2017-04-15T02:23:34.448Z,8.9
2017-04-15T02:24:45.491Z,8.85
2017-04-15T02:25:56.521Z,8.92
2017-04-15T02:27:07.534Z,8.98
2017-04-15T02:28:18.762Z,8.97
2017-04-15T02:29:29.791Z,8.94
2017-04-15T02:30:41.014Z,8.94
2017-04-15T02:31:52.242Z,8.94
2017-04-15T02:33:03.265Z,8.95
2017-04-15T02:34:14.345Z,8.87
2017-04-15T02:35:25.367Z,8.85
2017-04-15T02:36:36.597Z,8.77
2017-04-15T02:37:47.616Z,8.8
2017-04-15T02:38:58.782Z,8.79
2017-04-15T02:40:09.804Z,8.82
2017-04-15T02:41:21.026Z,8.74
2017-04-15T02:42:32.051Z,8.82
2017-04-15T02:43:43.077Z,8.79
2017-04-15T02:44:54.353Z,8.69
2017-04-15T02:46:05.399Z,8.8
2017-04-15T02:47:16.625Z,8.77
2017-04-15T02:48:27.856Z,8.69
2017-04-15T02:49:38.877Z,8.68
2017-04-15T02:50:49.902Z,8.58
2017-04-15T02:52:00.921Z,8.61
2017-04-15T02:53:12.150Z,8.52
2017-04-15T02:54:23.590Z,8.57
2017-04-15T02:55:34.619Z,8.54
2017-04-15T02:56:45.686Z,8.53
2017-04-15T02:57:56.916Z,8.58
2017-04-15T02:59:07.949Z,8.53
2017-04-15T03:00:19.176Z,8.57
2017-04-15T03:01:30.216Z,8.52
2017-04-15T03:02:41.238Z,8.46
2017-04-15T03:03:52.457Z,8.47
2017-04-15T03:05:03.482Z,8.43
2017-04-15T03:06:14.776Z,8.52
2017-04-15T03:07:25.793Z,8.35
2017-04-15T03:08:36.813Z,8.44
2017-04-15T03:09:47.843Z,8.42
2017-04-15T03:10:58.873Z,8.42
2017-04-15T03:12:09.895Z,8.46
2017-04-15T03:13:20.917Z,8.42
2017-04-15T03:14:32.140Z,8.34
2017-04-15T03:15:43.574Z,8.46
2017-04-15T03:16:54.856Z,8.35
2017-04-15T03:18:05.884Z,8.4
2017-04-15T03:19:16.913Z,8.34
2017-04-15T03:20:28.140Z,8.34
2017-04-15T03:21:39.169Z,8.39
2017-04-15T03:22:50.266Z,8.49
2017-04-15T03:24:01.568Z,8.34
2017-04-15T03:25:12.609Z,8.42
2017-04-15T03:26:23.644Z,8.44
2017-04-15T03:27:34.748Z,8.4
2017-04-15T03:28:45.766Z,8.47
2017-04-15T03:29:56.997Z,8.44
2017-04-15T03:31:08.018Z,8.46
2017-04-15T03:32:19.043Z,8.39
2017-04-15T03:33:30.067Z,8.44
2017-04-15T03:34:41.092Z,8.43
2017-04-15T03:35:52.129Z,8.47
2017-04-15T03:37:03.153Z,8.44
2017-04-15T03:38:14.182Z,8.4
2017-04-15T03:39:25.207Z,8.43
2017-04-15T03:40:36.254Z,8.39
2017-04-15T03:41:47.274Z,8.31
2017-04-15T03:42:58.299Z,8.42
2017-04-15T03:44:09.575Z,8.39
2017-04-15T03:45:20.598Z,8.42
2017-04-15T03:46:31.624Z,8.44
2017-04-15T03:47:42.659Z,8.39
2017-04-15T03:48:53.676Z,8.43
2017-04-15T03:50:04.703Z,8.44
2017-04-15T03:51:15.734Z,8.52
2017-04-15T03:52:26.745Z,8.4
2017-04-15T03:53:37.772Z,8.52
2017-04-15T03:54:48.853Z,8.47
2017-04-15T03:55:59.891Z,8.39
2017-04-15T03:57:10.905Z,8.43
2017-04-15T03:58:21.940Z,8.54
2017-04-15T03:59:33.179Z,8.42
2017-04-15T04:00:44.218Z,8.4
2017-04-15T04:01:55.246Z,8.52
2017-04-15T04:03:06.479Z,8.46
2017-04-15T04:04:17.511Z,8.58
2017-04-15T04:05:28.595Z,8.53
2017-04-15T04:06:39.617Z,8.58
2017-04-15T04:07:50.643Z,8.64
2017-04-15T04:09:01.866Z,8.58
2017-04-15T04:10:12.880Z,8.57
2017-04-15T04:11:23.962Z,8.53
2017-04-15T04:12:35.270Z,8.57
2017-04-15T04:13:46.297Z,8.54
2017-04-15T04:14:57.521Z,8.64
2017-04-15T04:16:08.741Z,8.65
2017-04-15T04:17:19.763Z,8.57
2017-04-15T04:18:30.791Z,8.62
2017-04-15T04:19:41.836Z,8.67
2017-04-15T04:20:52.879Z,8.62
2017-04-15T04:22:04.102Z,8.57
2017-04-15T04:23:15.187Z,8.6
2017-04-15T04:24:26.416Z,8.62
2017-04-15T04:25:37.437Z,8.62
2017-04-15T04:26:48.462Z,8.54
2017-04-15T04:27:59.688Z,8.6
2017-04-15T04:29:10.714Z,8.53
2017-04-15T04:30:21.744Z,8.62
2017-04-15T04:31:32.751Z,8.6
2017-04-15T04:32:43.825Z,8.54
2017-04-15T04:33:54.847Z,8.61
2017-04-15T04:35:05.877Z,8.61
2017-04-15T04:36:16.901Z,8.64
2017-04-15T04:37:28.150Z,8.6
2017-04-15T04:38:39.280Z,8.67
2017-04-15T04:39:50.305Z,8.52
2017-04-15T04:41:01.535Z,8.57
2017-04-15T04:42:12.567Z,8.57
2017-04-15T04:43:23.851Z,8.54
2017-04-15T04:44:35.077Z,8.57
2017-04-15T04:45:46.094Z,8.61
2017-04-15T04:46:57.123Z,8.54
2017-04-15T04:48:08.353Z,8.61
2017-04-15T04:49:19.379Z,8.64
2017-04-15T04:50:30.402Z,8.53
2017-04-15T04:51:41.429Z,8.61
2017-04-15T04:52:52.653Z,8.57
2017-04-15T04:54:03.730Z,8.6
2017-04-15T04:55:14.949Z,8.54
2017-04-15T04:56:25.977Z,8.54
2017-04-15T04:57:37.003Z,8.57
2017-04-15T04:58:48.033Z,8.57
2017-04-15T04:59:59.259Z,8.6
2017-04-15T05:01:10.341Z,8.6
2017-04-15T05:02:21.417Z,8.6
2017-04-15T05:03:32.450Z,8.57
2017-04-15T05:04:43.481Z,8.54
2017-04-15T05:05:54.758Z,8.54
2017-04-15T05:07:05.972Z,8.54
2017-04-15T05:08:16.991Z,8.54
2017-04-15T05:09:28.015Z,8.57
2017-04-15T05:10:39.059Z,8.43
2017-04-15T05:11:50.079Z,8.42
2017-04-15T05:13:01.097Z,8.57
2017-04-15T05:14:12.123Z,8.4
2017-04-15T05:15:23.188Z,8.42
2017-04-15T05:16:34.210Z,8.43
2017-04-15T05:17:45.643Z,8.44
2017-04-15T05:18:56.875Z,8.53
2017-04-15T05:20:07.909Z,8.47
2017-04-15T05:21:18.922Z,8.57
2017-04-15T05:22:29.947Z,8.5
2017-04-15T05:23:41.179Z,8.36
2017-04-15T05:24:52.401Z,8.44
2017-04-15T05:26:03.683Z,8.4
2017-04-15T05:27:14.740Z,8.43
2017-04-15T05:28:25.975Z,8.44
2017-04-15T05:29:37.110Z,8.53
2017-04-15T05:30:48.125Z,8.5
2017-04-15T05:31:59.347Z,8.43
2017-04-15T05:33:10.365Z,8.42
2017-04-15T05:34:21.390Z,8.52
2017-04-15T05:35:32.613Z,8.5
2017-04-15T05:36:43.688Z,8.54
2017-04-15T05:37:54.709Z,8.52
2017-04-15T05:39:05.962Z,8.57
2017-04-15T05:40:16.978Z,8.44
2017-04-15T05:41:27.992Z,8.42
2017-04-15T05:42:39.419Z,8.58
2017-04-15T05:43:50.466Z,8.53
2017-04-15T05:45:01.492Z,8.52
2017-04-15T05:46:12.510Z,8.53
2017-04-15T05:47:23.931Z,8.5
2017-04-15T05:48:34.950Z,8.5
2017-04-15T05:49:46.180Z,8.58
2017-04-15T05:50:57.198Z,8.53
2017-04-15T05:52:08.219Z,8.52
2017-04-15T05:53:19.497Z,8.46
2017-04-15T05:54:30.558Z,8.54
2017-04-15T05:55:41.585Z,8.53
2017-04-15T05:56:52.613Z,8.58
2017-04-15T05:58:03.642Z,8.57
2017-04-15T05:59:14.659Z,8.57
2017-04-15T06:00:25.752Z,8.57
2017-04-15T06:01:36.926Z,8.54
2017-04-15T06:02:47.959Z,8.61
2017-04-15T06:03:59.019Z,8.53
2017-04-15T06:05:10.284Z,8.57
2017-04-15T06:06:21.515Z,8.65
2017-04-15T06:07:32.535Z,8.52
2017-04-15T06:08:43.558Z,8.61
2017-04-15T06:09:54.593Z,8.6
2017-04-15T06:11:05.610Z,8.62
2017-04-15T06:12:16.636Z,8.61
2017-04-15T06:13:27.669Z,8.67
2017-04-15T06:14:38.746Z,8.67
2017-04-15T06:15:49.768Z,8.53
2017-04-15T06:17:00.791Z,8.62
2017-04-15T06:18:11.838Z,8.64
2017-04-15T06:19:22.867Z,8.67
2017-04-15T06:20:34.137Z,8.68
2017-04-15T06:21:45.146Z,8.69
2017-04-15T06:22:56.181Z,8.68
2017-04-15T06:24:07.214Z,8.67
2017-04-15T06:25:18.226Z,8.69
2017-04-15T06:26:29.260Z,8.71
2017-04-15T06:27:40.289Z,8.72
2017-04-15T06:28:51.532Z,8.72
2017-04-15T06:30:02.558Z,8.69
2017-04-15T06:31:13.579Z,8.72
2017-04-15T06:32:24.651Z,8.65
2017-04-15T06:33:35.669Z,8.72
2017-04-15T06:34:46.695Z,8.77
2017-04-15T06:35:58.125Z,8.74
2017-04-15T06:37:09.141Z,8.72
2017-04-15T06:38:20.170Z,8.74
2017-04-15T06:39:31.200Z,8.69
2017-04-15T06:40:42.225Z,8.71
2017-04-15T06:41:53.489Z,8.74
2017-04-15T06:43:04.507Z,8.74
2017-04-15T06:44:15.530Z,8.72
2017-04-15T06:45:26.757Z,8.8
2017-04-15T06:46:37.796Z,8.72
2017-04-15T06:47:48.829Z,8.69
2017-04-15T06:48:59.861Z,8.8
2017-04-15T06:50:10.876Z,8.79
2017-04-15T06:51:21.922Z,8.74
2017-04-15T06:52:33.189Z,8.77
2017-04-15T06:53:44.208Z,8.79
2017-04-15T06:54:55.446Z,8.89
2017-04-15T06:56:06.471Z,8.77
2017-04-15T06:57:17.692Z,8.85
2017-04-15T06:58:28.724Z,8.8
2017-04-15T06:59:39.753Z,8.77
2017-04-15T07:00:50.771Z,8.89
2017-04-15T07:02:01.789Z,8.9
2017-04-15T07:03:13.050Z,8.92
2017-04-15T07:04:24.079Z,8.9
2017-04-15T07:05:35.111Z,8.9
2017-04-15T07:06:46.361Z,8.95
2017-04-15T07:07:57.848Z,8.92
2017-04-15T07:09:09.249Z,8.94
2017-04-15T07:10:20.282Z,8.92
2017-04-15T07:11:31.503Z,8.97
2017-04-15T07:12:42.729Z,8.97
2017-04-15T07:13:53.753Z,8.92
2017-04-15T07:15:04.826Z,8.92
2017-04-15T07:16:15.838Z,8.87
2017-04-15T07:17:26.856Z,8.92
2017-04-15T07:18:37.883Z,8.92
2017-04-15T07:19:48.910Z,8.9
2017-04-15T07:20:59.939Z,8.9
2017-04-15T07:22:10.974Z,8.94
2017-04-15T07:23:22.003Z,8.94
2017-04-15T07:24:33.289Z,8.9
2017-04-15T07:25:44.521Z,8.9
2017-04-15T07:26:55.751Z,8.97
2017-04-15T07:28:06.784Z,8.95
2017-04-15T07:29:18.020Z,9.01
2017-04-15T07:30:29.047Z,8.97
2017-04-15T07:31:40.268Z,8.98
2017-04-15T07:32:51.502Z,8.98
2017-04-15T07:34:02.525Z,9.08
2017-04-15T07:35:13.786Z,8.95
2017-04-15T07:36:24.822Z,8.97
2017-04-15T07:37:35.844Z,8.97
2017-04-15T07:38:47.072Z,8.95
2017-04-15T07:39:58.097Z,8.95
2017-04-15T07:41:09.313Z,8.97
2017-04-15T07:42:20.542Z,8.94
2017-04-15T07:43:31.774Z,8.98
2017-04-15T07:44:43.010Z,9
2017-04-15T07:45:54.088Z,8.97
2017-04-15T07:47:05.119Z,9.11
2017-04-15T07:48:16.137Z,9.09
2017-04-15T07:49:27.165Z,9.19
2017-04-15T07:50:38.587Z,9.24
2017-04-15T07:51:49.630Z,9.23
2017-04-15T07:53:00.645Z,9.26
2017-04-15T07:54:11.677Z,9.29
2017-04-15T07:55:22.706Z,9.3
2017-04-15T07:56:33.923Z,9.34
2017-04-15T07:57:45.009Z,9.3
2017-04-15T07:58:56.035Z,9.24
2017-04-15T08:00:07.055Z,9.29
2017-04-15T08:01:18.089Z,9.32
2017-04-15T08:02:29.324Z,9.39
2017-04-15T08:03:40.356Z,9.42
2017-04-15T08:04:51.387Z,9.57
2017-04-15T08:06:02.428Z,9.66
2017-04-15T08:07:13.530Z,9.85
2017-04-15T08:08:24.812Z,9.85
2017-04-15T08:09:35.829Z,10.08
2017-04-15T08:10:46.852Z,10.31
2017-04-15T08:11:58.082Z,10.36
2017-04-15T08:13:09.120Z,10.41
2017-04-15T08:14:20.153Z,10.29
2017-04-15T08:15:31.186Z,10.31
2017-04-15T08:16:42.226Z,10.33
2017-04-15T08:17:53.506Z,10.33
2017-04-15T08:19:04.525Z,10.26
2017-04-15T08:20:15.555Z,10.33
2017-04-15T08:21:26.582Z,10.36
2017-04-15T08:22:37.606Z,10.41
2017-04-15T08:23:48.634Z,10.41
2017-04-15T08:24:59.663Z,10.38
2017-04-15T08:26:10.694Z,10.49
2017-04-15T08:27:21.712Z,10.44
2017-04-15T08:28:32.746Z,10.36
2017-04-15T08:29:43.972Z,10.39
2017-04-15T08:30:54.997Z,10.42
2017-04-15T08:32:06.234Z,10.42
2017-04-15T08:33:17.273Z,10.41
2017-04-15T08:34:28.479Z,10.42
2017-04-15T08:35:39.751Z,10.39
2017-04-15T08:36:51.007Z,10.44
2017-04-15T08:38:02.108Z,10.51
2017-04-15T08:39:13.137Z,10.55
2017-04-15T08:40:24.201Z,10.54
2017-04-15T08:41:35.230Z,10.47
2017-04-15T08:42:46.259Z,10.61
2017-04-15T08:43:57.280Z,10.67
2017-04-15T08:45:08.306Z,10.69
2017-04-15T08:46:19.336Z,10.77
2017-04-15T08:47:30.358Z,10.75
2017-04-15T08:48:41.388Z,10.85
2017-04-15T08:49:52.472Z,10.94
2017-04-15T08:51:03.499Z,11.1
2017-04-15T08:52:14.728Z,11.34
2017-04-15T08:53:25.964Z,11.33
2017-04-15T08:54:37.008Z,11.46
2017-04-15T08:55:48.256Z,11.59
2017-04-15T08:56:59.684Z,11.61
2017-04-15T08:58:10.913Z,11.71
2017-04-15T08:59:21.929Z,11.78
2017-04-15T09:00:33.166Z,12.01
2017-04-15T09:01:44.254Z,12.25
2017-04-15T09:02:55.281Z,12.28
2017-04-15T09:04:06.518Z,12.38
2017-04-15T09:05:17.707Z,12.36
2017-04-15T09:06:28.778Z,12.4
2017-04-15T09:07:40.018Z,12.36
2017-04-15T09:08:51.052Z,12.13
2017-04-15T09:10:02.286Z,12.08
2017-04-15T09:11:13.313Z,12.19
2017-04-15T09:12:24.556Z,12.13
2017-04-15T09:13:35.596Z,12.13
2017-04-15T09:14:46.617Z,12.08
2017-04-15T09:15:57.651Z,12.07
2017-04-15T09:17:08.694Z,11.97
2017-04-15T09:18:19.923Z,11.94
2017-04-15T09:19:30.955Z,11.85
2017-04-15T09:20:41.981Z,11.7
2017-04-15T09:21:53.273Z,11.63
2017-04-15T09:23:04.306Z,11.6
2017-04-15T09:24:15.338Z,11.57
2017-04-15T09:25:26.361Z,11.59
2017-04-15T09:26:37.602Z,11.51
2017-04-15T09:27:48.636Z,11.56
2017-04-15T09:28:59.683Z,11.53
2017-04-15T09:30:10.928Z,11.52
2017-04-15T09:31:22.008Z,11.53
2017-04-15T09:32:33.501Z,11.46
2017-04-15T09:33:44.540Z,11.56
2017-04-15T09:34:55.784Z,11.48
2017-04-15T09:36:07.021Z,11.51
2017-04-15T09:37:18.050Z,11.43
2017-04-15T09:38:29.080Z,11.41
2017-04-15T09:39:40.116Z,11.39
2017-04-15T09:40:51.147Z,11.43
2017-04-15T09:42:02.186Z,11.45
2017-04-15T09:43:13.483Z,11.46
2017-04-15T09:44:24.710Z,11.46
2017-04-15T09:45:35.949Z,11.49
2017-04-15T09:46:47.174Z,11.56
2017-04-15T09:47:58.202Z,11.56
2017-04-15T09:49:09.435Z,11.57
2017-04-15T09:50:20.472Z,11.56
2017-04-15T09:51:31.500Z,11.52
2017-04-15T09:52:42.544Z,11.48
2017-04-15T09:53:53.763Z,11.42
2017-04-15T09:55:04.791Z,11.38
2017-04-15T09:56:16.463Z,11.23
2017-04-15T09:57:27.641Z,11.15
2017-04-15T09:58:38.716Z,11.1
2017-04-15T09:59:49.744Z,11.09
2017-04-15T10:01:00.775Z,11.03
2017-04-15T10:02:11.806Z,11.05
2017-04-15T10:03:22.847Z,10.95
2017-04-15T10:04:33.918Z,11
2017-04-15T10:05:44.940Z,10.9
2017-04-15T10:06:55.968Z,10.83
2017-04-15T10:08:07.203Z,10.9
2017-04-15T10:09:18.225Z,10.9
2017-04-15T10:10:29.864Z,10.91
2017-04-15T10:11:40.895Z,10.85
2017-04-15T10:12:51.913Z,10.84
2017-04-15T10:14:02.943Z,10.94
2017-04-15T10:15:13.994Z,10.88
2017-04-15T10:16:25.010Z,10.98
2017-04-15T10:17:36.037Z,11
2017-04-15T10:18:47.080Z,10.97
2017-04-15T10:19:58.105Z,10.95
2017-04-15T10:21:09.587Z,11.06
2017-04-15T10:22:21.002Z,11.02
2017-04-15T10:23:32.140Z,11.03
2017-04-15T10:24:43.427Z,11.1
2017-04-15T10:25:54.704Z,11
2017-04-15T10:27:05.948Z,10.91
2017-04-15T10:28:16.981Z,11.03
2017-04-15T10:29:28.006Z,11.1
2017-04-15T10:30:39.057Z,11.03
2017-04-15T10:31:50.133Z,11.13
2017-04-15T10:33:01.153Z,11.08
2017-04-15T10:34:12.177Z,11.16
2017-04-15T10:35:23.210Z,11.13
2017-04-15T10:36:34.224Z,11.26
2017-04-15T10:37:45.254Z,11.26
2017-04-15T10:38:56.474Z,11.27
2017-04-15T10:40:07.699Z,11.27
2017-04-15T10:41:18.717Z,11.34
2017-04-15T10:42:29.939Z,11.28
2017-04-15T10:43:41.233Z,11.26
2017-04-15T10:44:52.269Z,11.33
2017-04-15T10:46:03.302Z,11.35
2017-04-15T10:47:14.335Z,11.43
2017-04-15T10:48:25.575Z,11.46
2017-04-15T10:49:36.602Z,11.52
2017-04-15T10:50:47.633Z,11.57
2017-04-15T10:51:58.929Z,11.67
2017-04-15T10:53:10.205Z,11.81
2017-04-15T10:54:21.465Z,11.91
2017-04-15T10:55:32.493Z,12.08
2017-04-15T10:56:43.724Z,12.11
2017-04-15T10:57:54.762Z,12.11
2017-04-15T10:59:05.783Z,12.22
2017-04-15T11:00:16.822Z,12.19
2017-04-15T11:01:27.847Z,12.28
2017-04-15T11:02:38.874Z,12.33
2017-04-15T11:03:50.155Z,12.29
2017-04-15T11:05:01.191Z,12.28
2017-04-15T11:06:12.211Z,12.38
2017-04-15T11:07:23.440Z,12.31
2017-04-15T11:08:34.476Z,12.43
2017-04-15T11:09:45.504Z,12.44
2017-04-15T11:10:56.536Z,12.44
2017-04-15T11:12:07.562Z,12.4
2017-04-15T11:13:18.609Z,12.38
2017-04-15T11:14:29.724Z,12.41
2017-04-15T11:15:40.760Z,12.31
2017-04-15T11:16:51.797Z,12.38
2017-04-15T11:18:02.828Z,12.29
2017-04-15T11:19:13.874Z,12.37
2017-04-15T11:20:24.898Z,12.36
2017-04-15T11:21:36.134Z,12.34
2017-04-15T11:22:47.292Z,12.31
2017-04-15T11:23:58.389Z,12.29
2017-04-15T11:25:09.409Z,12.26
2017-04-15T11:26:20.893Z,12.22
2017-04-15T11:27:31.920Z,12.19
2017-04-15T11:28:42.947Z,12.22
2017-04-15T11:29:54.186Z,12.19
2017-04-15T11:31:05.219Z,12.15
2017-04-15T11:32:16.243Z,12.13
2017-04-15T11:33:27.271Z,12.22
2017-04-15T11:34:38.320Z,12.22
2017-04-15T11:35:50.213Z,12.23
2017-04-15T11:37:01.437Z,12.28
2017-04-15T11:38:12.466Z,12.38
2017-04-15T11:39:23.506Z,12.2
2017-04-15T11:40:34.734Z,12.07
2017-04-15T11:41:45.764Z,12.11
2017-04-15T11:42:56.791Z,12.1
2017-04-15T11:44:07.824Z,12.01
2017-04-15T11:45:19.041Z,12.05
2017-04-15T11:46:30.124Z,12.07
2017-04-15T11:47:41.353Z,12.05
2017-04-15T11:48:52.391Z,12.19
2017-04-15T11:50:03.683Z,12.33
2017-04-15T11:51:15.169Z,12.45
2017-04-15T11:52:26.202Z,12.53
2017-04-15T11:53:37.424Z,12.59
2017-04-15T11:54:48.439Z,12.8
2017-04-15T11:55:59.486Z,12.77
2017-04-15T11:57:10.525Z,13.01
2017-04-15T11:58:21.547Z,13.25
2017-04-15T11:59:32.581Z,13.42
2017-04-15T12:00:43.628Z,13.55
2017-04-15T12:01:54.662Z,13.73
2017-04-15T12:03:05.696Z,13.93
2017-04-15T12:04:16.930Z,13.99
2017-04-15T12:05:28.152Z,13.9
2017-04-15T12:06:39.406Z,13.72
2017-04-15T12:07:50.696Z,13.57
2017-04-15T12:09:01.731Z,13.45
2017-04-15T12:10:12.771Z,13.48
2017-04-15T12:11:23.799Z,13.45
2017-04-15T12:12:34.837Z,13.32
2017-04-15T12:13:46.068Z,13.17
2017-04-15T12:14:57.121Z,12.94
2017-04-15T12:16:08.135Z,12.7
2017-04-15T12:17:19.153Z,12.71
2017-04-15T12:18:30.237Z,12.56
2017-04-15T12:19:41.270Z,12.56
2017-04-15T12:20:52.296Z,12.52
2017-04-15T12:22:03.334Z,12.33
2017-04-15T12:23:14.369Z,12.38
2017-04-15T12:24:25.397Z,12.44
2017-04-15T12:25:36.424Z,12.59
2017-04-15T12:26:47.446Z,12.94
2017-04-15T12:27:58.469Z,13.2
2017-04-15T12:29:09.755Z,13.44
2017-04-15T12:30:20.788Z,13.6
2017-04-15T12:31:31.822Z,13.81
2017-04-15T12:32:42.845Z,13.95
2017-04-15T12:33:53.881Z,14.06
2017-04-15T12:35:04.915Z,14.05
2017-04-15T12:36:16.151Z,14.02
2017-04-15T12:37:27.183Z,14.05
2017-04-15T12:38:38.417Z,14.03
2017-04-15T12:39:49.464Z,13.99
2017-04-15T12:41:00.489Z,14.01
2017-04-15T12:42:11.521Z,14.03
2017-04-15T12:43:22.566Z,13.86
2017-04-15T12:44:33.598Z,13.93
2017-04-15T12:45:44.808Z,13.95
2017-04-15T12:46:56.164Z,14.01
2017-04-15T12:48:07.228Z,14.03
2017-04-15T12:49:18.257Z,14.08
2017-04-15T12:50:29.291Z,14.05
2017-04-15T12:51:40.321Z,14.13
2017-04-15T12:52:51.556Z,14.02
2017-04-15T12:54:02.595Z,14.05
2017-04-15T12:55:13.699Z,13.88
2017-04-15T12:56:24.934Z,13.91
2017-04-15T12:57:35.961Z,13.88
2017-04-15T12:58:46.992Z,13.86
2017-04-15T12:59:58.020Z,13.76
2017-04-15T13:01:09.249Z,13.78
2017-04-15T13:02:20.281Z,13.78
2017-04-15T13:03:31.318Z,13.78
2017-04-15T13:04:42.353Z,13.78
2017-04-15T13:05:53.625Z,13.87
2017-04-15T13:07:04.665Z,14.01
2017-04-15T13:08:15.698Z,13.88
2017-04-15T13:09:26.719Z,13.88
2017-04-15T13:10:37.750Z,13.86
2017-04-15T13:11:48.976Z,13.94
2017-04-15T13:13:00.011Z,13.94
2017-04-15T13:14:11.181Z,13.87
2017-04-15T13:15:22.469Z,13.81
2017-04-15T13:16:33.556Z,13.75
2017-04-15T13:17:44.590Z,13.73
2017-04-15T13:18:55.637Z,13.7
2017-04-15T13:20:06.672Z,13.72
2017-04-15T13:21:17.700Z,13.7
2017-04-15T13:22:28.726Z,13.7
2017-04-15T13:23:39.750Z,13.73
2017-04-15T13:24:50.991Z,13.58
2017-04-15T13:26:02.021Z,13.75
2017-04-15T13:27:13.045Z,13.83
2017-04-15T13:28:24.277Z,13.76
2017-04-15T13:29:35.317Z,13.81
2017-04-15T13:30:46.353Z,13.75
2017-04-15T13:31:57.592Z,13.7
2017-04-15T13:33:08.697Z,13.58
2017-04-15T13:34:19.938Z,13.53
2017-04-15T13:35:31.171Z,13.48
2017-04-15T13:36:42.200Z,13.4
2017-04-15T13:37:53.244Z,13.31
2017-04-15T13:39:04.280Z,13.2
2017-04-15T13:40:15.318Z,13.07
2017-04-15T13:41:26.354Z,12.95
2017-04-15T13:42:37.391Z,12.96
2017-04-15T13:43:48.627Z,12.77
2017-04-15T13:44:59.852Z,12.58
2017-04-15T13:46:10.884Z,12.59
2017-04-15T13:47:21.909Z,12.59
2017-04-15T13:48:33.201Z,12.55
2017-04-15T13:49:44.247Z,12.59
2017-04-15T13:50:55.277Z,12.7
2017-04-15T13:52:06.712Z,12.74
2017-04-15T13:53:17.743Z,12.91
2017-04-15T13:54:28.767Z,12.92
2017-04-15T13:55:39.798Z,13.01
2017-04-15T13:56:50.829Z,13.03
2017-04-15T13:58:02.053Z,13.14
2017-04-15T13:59:13.154Z,13.21
2017-04-15T14:00:24.183Z,13.27
2017-04-15T14:01:35.217Z,13.25
2017-04-15T14:02:46.456Z,13.4
2017-04-15T14:03:57.485Z,13.42
2017-04-15T14:05:08.507Z,13.47
2017-04-15T14:06:19.551Z,13.45
2017-04-15T14:07:30.783Z,13.44
2017-04-15T14:08:41.809Z,13.51
2017-04-15T14:09:53.042Z,13.47
2017-04-15T14:11:04.263Z,13.45
2017-04-15T14:12:15.511Z,13.44
2017-04-15T14:13:26.555Z,13.48
2017-04-15T14:14:37.794Z,13.44
2017-04-15T14:15:49.329Z,13.29
2017-04-15T14:17:00.366Z,13.51
2017-04-15T14:18:11.406Z,13.47
2017-04-15T14:19:22.439Z,13.47
2017-04-15T14:20:33.480Z,13.54
2017-04-15T14:21:44.515Z,13.66
2017-04-15T14:22:55.551Z,13.62
2017-04-15T14:24:06.603Z,13.48
2017-04-15T14:25:17.829Z,13.45
2017-04-15T14:26:29.310Z,13.47
2017-04-15T14:27:40.348Z,13.45
2017-04-15T14:28:51.397Z,13.45
2017-04-15T14:30:02.434Z,13.4
2017-04-15T14:31:13.453Z,13.54
2017-04-15T14:32:24.494Z,13.45
2017-04-15T14:33:35.940Z,13.44
2017-04-15T14:34:47.106Z,13.48
2017-04-15T14:35:58.339Z,13.48
2017-04-15T14:37:09.821Z,13.45
2017-04-15T14:38:20.853Z,13.48
2017-04-15T14:39:31.883Z,13.25
2017-04-15T14:40:42.945Z,13.2
2017-04-15T14:41:53.989Z,13.25
2017-04-15T14:43:05.066Z,13.31
2017-04-15T14:44:16.104Z,13.25
2017-04-15T14:45:27.135Z,13.27
2017-04-15T14:46:38.580Z,13.2
2017-04-15T14:47:49.826Z,13.28
2017-04-15T14:49:00.873Z,13.14
2017-04-15T14:50:11.897Z,13.14
2017-04-15T14:51:22.932Z,13.11
2017-04-15T14:52:33.982Z,13.14
2017-04-15T14:53:45.208Z,13.11
2017-04-15T14:54:56.278Z,13.09
2017-04-15T14:56:07.307Z,13.09
2017-04-15T14:57:18.339Z,13.09
2017-04-15T14:58:29.473Z,13.09
2017-04-15T14:59:40.686Z,13.1
2017-04-15T15:00:51.713Z,13.17
2017-04-15T15:02:02.747Z,13.11
2017-04-15T15:03:13.995Z,13.1
2017-04-15T15:04:25.086Z,13.07
2017-04-15T15:05:36.312Z,13.1
2017-04-15T15:06:47.344Z,13.02
2017-04-15T15:07:58.382Z,13.03
2017-04-15T15:09:09.417Z,12.96
2017-04-15T15:10:20.445Z,13.01
2017-04-15T15:11:31.480Z,13.06
2017-04-15T15:12:42.506Z,13.1
2017-04-15T15:13:53.532Z,13.19
2017-04-15T15:15:04.635Z,13.11
2017-04-15T15:16:15.856Z,13.11
2017-04-15T15:17:26.883Z,13.24
2017-04-15T15:18:37.906Z,13.16
2017-04-15T15:19:48.932Z,13.25
2017-04-15T15:20:59.978Z,13.35
2017-04-15T15:22:11.010Z,13.25
2017-04-15T15:23:22.044Z,13.4
2017-04-15T15:24:33.274Z,13.39
2017-04-15T15:25:44.352Z,13.45
2017-04-15T15:26:55.379Z,13.27
2017-04-15T15:28:06.412Z,13.44
2017-04-15T15:29:17.439Z,13.32
2017-04-15T15:30:28.682Z,13.24
2017-04-15T15:31:39.712Z,13.09
2017-04-15T15:32:50.744Z,13.01
2017-04-15T15:34:01.783Z,13.02
2017-04-15T15:35:12.814Z,12.89